Giannis — SX5951 — position and weather

sailwx.info

Track history (hours):
 
Tides and Currents Weather Stations Pressure Air Temp Water Temp Dewpoint Dewpoint Depression Visibility Wind Speed Wind Dir Waves Ship Positions

Giannis

Last reported at 2017-Dec-13 18:41 UTC. Time now 2018-Jul-16 04:34 UTC.
Position N 38°04' E 024°12'.
Warning: this ship's position is months out of date.

Length 20 m.

Type: Fishing. MMSI: 239213000.

Date/timePositionNaut miles runAvg speedWind from/ knotsBaromVisibWave heightAir tempDewpointWater temp
2017-Dec-13 18:41N 38°04' E 024°12'0 1.4
2017-Dec-13 18:30N 38°03' E 024°12'0 0.1
2017-Dec-13 17:55N 38°04' E 024°12'2 0.8
2017-Dec-13 15:36N 38°03' E 024°09'1 7.0
2017-Dec-13 15:30N 38°03' E 024°08'3 7.0
2017-Dec-13 15:00N 38°02' E 024°04'6 0.3
2017-Dec-12 22:09N 38°03' E 024°11'0 0.5
2017-Dec-12 22:00N 38°03' E 024°11'1 2.1
2017-Dec-12 21:30N 38°04' E 024°11'0 0.3
2017-Dec-12 20:49N 38°04' E 024°11'11 0.7
2017-Dec-12 05:04N 37°54' E 024°08'1 8.0
2017-Dec-12 04:56N 37°53' E 024°08'1 2.0
2017-Dec-12 04:30N 37°52' E 024°08'0 0.1
2017-Dec-12 03:45N 37°52' E 024°08'0 0.1
2017-Dec-12 03:27N 37°52' E 024°08'0 0.2
2017-Dec-12 02:26N 37°53' E 024°08'8 3.5
2017-Dec-12 00:07N 37°60' E 024°03'2 2.9
2017-Dec-11 23:23N 38°02' E 024°02'8 4.4
2017-Dec-11 21:31N 38°04' E 024°12'3 0.5
2017-Dec-11 15:19N 38°03' E 024°08'3 6.9
2017-Dec-11 14:55N 38°02' E 024°04'2 0.2
2017-Dec-10 23:10N 38°01' E 024°02'1 1.5
2017-Dec-10 22:26N 38°02' E 024°02'8 1.2
2017-Dec-10 15:42N 38°05' E 024°11'4 7.4
2017-Dec-10 15:12N 38°08' E 024°09'15 0.4
2017-Dec-09 00:59N 37°53' E 024°08'1 1.2
2017-Dec-09 00:24N 37°53' E 024°08'10 1.1
2017-Dec-08 15:06N 38°02' E 024°04'1 6.8
2017-Dec-08 15:00N 38°02' E 024°03'1 0.1
2017-Dec-07 21:36N 38°02' E 024°05'1 9.3
2017-Dec-07 21:30N 38°03' E 024°06'3 0.4
2017-Dec-07 14:48N 38°02' E 024°03'1 0.1
2017-Dec-06 22:15N 38°02' E 024°01'  
Track history (hours):
 
Tides and Currents Weather Stations Pressure Air Temp Water Temp Dewpoint Dewpoint Depression Visibility Wind Speed Wind Dir Waves Ship Positions

Giannis

Last reported at 2017-Dec-13 18:41 UTC. Time now 2018-Jul-16 04:34 UTC.
Position N 38°04' E 024°12'.
Warning: this ship's position is months out of date.

Length 20 m.

Type: Fishing. MMSI: 239213000.

Date/timePositionNaut miles runAvg speedWind from/ knotsBaromVisibWave heightAir tempDewpointWater temp
2017-Dec-13 18:41N 38°04' E 024°12'0 1.4
2017-Dec-13 18:30N 38°03' E 024°12'0 0.1
2017-Dec-13 17:55N 38°04' E 024°12'2 0.8
2017-Dec-13 15:36N 38°03' E 024°09'1 7.0
2017-Dec-13 15:30N 38°03' E 024°08'3 7.0
2017-Dec-13 15:00N 38°02' E 024°04'6 0.3
2017-Dec-12 22:09N 38°03' E 024°11'0 0.5
2017-Dec-12 22:00N 38°03' E 024°11'1 2.1
2017-Dec-12 21:30N 38°04' E 024°11'0 0.3
2017-Dec-12 20:49N 38°04' E 024°11'11 0.7
2017-Dec-12 05:04N 37°54' E 024°08'1 8.0
2017-Dec-12 04:56N 37°53' E 024°08'1 2.0
2017-Dec-12 04:30N 37°52' E 024°08'0 0.1
2017-Dec-12 03:45N 37°52' E 024°08'0 0.1
2017-Dec-12 03:27N 37°52' E 024°08'0 0.2
2017-Dec-12 02:26N 37°53' E 024°08'8 3.5
2017-Dec-12 00:07N 37°60' E 024°03'2 2.9
2017-Dec-11 23:23N 38°02' E 024°02'8 4.4
2017-Dec-11 21:31N 38°04' E 024°12'3 0.5
2017-Dec-11 15:19N 38°03' E 024°08'3 6.9
2017-Dec-11 14:55N 38°02' E 024°04'2 0.2
2017-Dec-10 23:10N 38°01' E 024°02'1 1.5
2017-Dec-10 22:26N 38°02' E 024°02'8 1.2
2017-Dec-10 15:42N 38°05' E 024°11'4 7.4
2017-Dec-10 15:12N 38°08' E 024°09'15 0.4
2017-Dec-09 00:59N 37°53' E 024°08'1 1.2
2017-Dec-09 00:24N 37°53' E 024°08'10 1.1
2017-Dec-08 15:06N 38°02' E 024°04'1 6.8
2017-Dec-08 15:00N 38°02' E 024°03'1 0.1
2017-Dec-07 21:36N 38°02' E 024°05'1 9.3
2017-Dec-07 21:30N 38°03' E 024°06'3 0.4
2017-Dec-07 14:48N 38°02' E 024°03'1 0.1
2017-Dec-06 22:15N 38°02' E 024°01'  

Dump ship's entire track history